createdAt,value
2019-03-28T00:03:59.950Z,27.90
2019-03-28T00:10:05.061Z,28.70
2019-03-28T00:16:09.943Z,28.60
2019-03-28T00:22:20.885Z,28.02
2019-03-28T00:28:25.772Z,27.05
2019-03-28T00:34:30.720Z,29.02
2019-03-28T00:40:35.855Z,28.30
2019-03-28T00:46:40.742Z,29.37
2019-03-28T00:52:45.883Z,29.07
2019-03-28T00:58:51.054Z,28.92
2019-03-28T01:04:56.252Z,28.85
2019-03-28T01:11:01.179Z,28.42
2019-03-28T01:17:06.552Z,29.00
2019-03-28T01:23:11.418Z,29.27
2019-03-28T01:29:16.358Z,30.12
2019-03-28T01:35:21.280Z,30.35
2019-03-28T01:41:26.237Z,28.95
2019-03-28T01:47:31.186Z,29.48
2019-03-28T01:53:36.069Z,31.82
2019-03-28T01:59:40.963Z,31.60
2019-03-28T02:05:45.849Z,34.10
2019-03-28T02:11:50.739Z,33.65
2019-03-28T02:17:55.715Z,36.17
2019-03-28T02:24:01.263Z,33.73
2019-03-28T02:30:07.316Z,34.30
2019-03-28T02:36:12.199Z,34.50
2019-03-28T02:42:17.191Z,34.55
2019-03-28T02:48:22.361Z,35.00
2019-03-28T02:54:27.266Z,34.50
2019-03-28T03:00:32.157Z,33.10
2019-03-28T03:06:37.047Z,35.38
2019-03-28T03:12:41.968Z,36.03
2019-03-28T03:18:46.856Z,34.83
2019-03-28T03:24:51.895Z,35.10
2019-03-28T03:30:57.106Z,33.80
2019-03-28T03:37:02.087Z,34.83
2019-03-28T03:43:07.081Z,34.00
2019-03-28T03:49:11.978Z,34.83
2019-03-28T03:55:16.888Z,35.85
2019-03-28T04:01:21.873Z,35.92
2019-03-28T04:07:26.820Z,35.70
2019-03-28T04:13:31.843Z,35.15
2019-03-28T04:19:36.736Z,34.38
2019-03-28T04:25:41.685Z,34.83
2019-03-28T04:31:46.564Z,34.98
2019-03-28T04:37:51.458Z,36.00
2019-03-28T04:43:56.433Z,34.40
2019-03-28T04:50:01.568Z,32.95
2019-03-28T04:56:06.448Z,34.83
2019-03-28T05:02:11.502Z,35.10
2019-03-28T05:08:16.366Z,36.20
2019-03-28T05:14:21.223Z,36.10
2019-03-28T05:20:26.231Z,37.17
2019-03-28T05:26:31.126Z,36.80
2019-03-28T05:32:36.144Z,37.38
2019-03-28T05:38:41.023Z,35.35
2019-03-28T05:44:45.946Z,34.33
2019-03-28T05:50:50.968Z,32.83
2019-03-28T05:56:55.900Z,35.50
2019-03-28T06:03:00.730Z,34.98
2019-03-28T06:09:07.287Z,35.20
2019-03-28T06:15:12.548Z,35.15
2019-03-28T06:21:17.439Z,35.50
2019-03-28T06:27:22.318Z,34.75
2019-03-28T06:33:27.293Z,33.18
2019-03-28T06:39:32.303Z,34.00
2019-03-28T06:45:37.461Z,37.15
2019-03-28T06:51:42.379Z,35.00
2019-03-28T06:57:47.371Z,34.40
2019-03-28T07:03:52.753Z,34.85
2019-03-28T07:09:57.713Z,35.95
2019-03-28T07:16:03.015Z,36.23
2019-03-28T07:22:07.921Z,35.00
2019-03-28T07:28:12.799Z,32.93
2019-03-28T07:34:17.697Z,33.92
2019-03-28T07:40:22.649Z,32.67
2019-03-28T07:46:27.634Z,32.03
2019-03-28T07:52:32.510Z,32.67
2019-03-28T07:58:37.446Z,31.60
2019-03-28T08:04:42.336Z,29.32
2019-03-28T08:10:47.264Z,29.72
2019-03-28T08:16:52.287Z,29.23
2019-03-28T08:22:57.209Z,28.38
2019-03-28T08:29:02.162Z,25.72
2019-03-28T08:35:08.747Z,26.07
2019-03-28T08:41:13.718Z,24.57
2019-03-28T08:47:18.657Z,25.55
2019-03-28T08:53:23.703Z,18.70
2019-03-28T08:59:28.608Z,16.12
2019-03-28T09:05:33.546Z,15.28
2019-03-28T09:11:38.425Z,16.32
2019-03-28T09:17:43.352Z,17.70
2019-03-28T09:23:48.211Z,16.62
2019-03-28T09:29:53.510Z,16.48
2019-03-28T09:36:01.392Z,16.05
2019-03-28T09:42:06.284Z,15.28
2019-03-28T09:48:11.867Z,15.95
2019-03-28T09:54:16.979Z,15.70
2019-03-28T10:00:22.455Z,16.32
2019-03-28T10:06:27.471Z,13.93
2019-03-28T10:12:34.241Z,14.25
2019-03-28T10:18:38.915Z,13.05
2019-03-28T10:24:44.535Z,11.57
2019-03-28T10:30:49.537Z,12.40
2019-03-28T10:36:54.447Z,12.35
2019-03-28T10:42:59.349Z,12.10
2019-03-28T10:49:04.331Z,11.10
2019-03-28T10:55:09.345Z,9.75
2019-03-28T11:01:16.691Z,10.40
2019-03-28T11:07:20.839Z,9.75
2019-03-28T11:13:25.799Z,9.63
2019-03-28T11:19:30.821Z,10.03
2019-03-28T11:25:35.950Z,11.10
2019-03-28T11:31:46.884Z,11.57
2019-03-28T11:37:47.367Z,10.70
2019-03-28T11:43:52.233Z,10.00
2019-03-28T11:49:57.492Z,10.35
2019-03-28T11:56:02.347Z,9.73
2019-03-28T12:02:19.113Z,9.18
2019-03-28T12:08:13.843Z,11.22
2019-03-28T12:14:18.774Z,10.55
2019-03-28T12:20:23.732Z,10.15
2019-03-28T12:26:28.667Z,10.20
2019-03-28T12:32:33.920Z,8.05
2019-03-28T12:38:38.900Z,6.33
2019-03-28T12:44:56.330Z,8.40
2019-03-28T12:50:58.848Z,7.95
2019-03-28T12:56:58.273Z,8.15
2019-03-28T13:03:03.242Z,7.28
2019-03-28T13:09:10.187Z,7.40
2019-03-28T13:15:15.092Z,6.83
2019-03-28T13:21:20.115Z,8.35
2019-03-28T13:27:24.972Z,8.03
2019-03-28T13:33:29.814Z,8.88
2019-03-28T13:39:34.722Z,8.85
2019-03-28T13:45:40.416Z,8.68
2019-03-28T13:51:45.416Z,9.73
2019-03-28T13:57:52.202Z,9.05
2019-03-28T14:03:56.924Z,7.55
2019-03-28T14:10:01.765Z,5.92
2019-03-28T14:16:06.790Z,6.20
2019-03-28T14:22:11.577Z,6.55
2019-03-28T14:28:16.405Z,4.40
2019-03-28T14:34:21.317Z,4.85
2019-03-28T14:40:26.248Z,3.70
2019-03-28T14:46:30.978Z,3.80
2019-03-28T14:52:35.837Z,4.00
2019-03-28T14:58:41.920Z,3.98
2019-03-28T15:04:46.688Z,4.47
2019-03-28T15:10:51.478Z,4.08
2019-03-28T15:16:56.241Z,3.92
2019-03-28T15:23:01.035Z,4.05
2019-03-28T15:29:05.775Z,3.35
2019-03-28T15:35:10.523Z,3.55
2019-03-28T15:41:15.321Z,3.70
2019-03-28T15:47:20.563Z,3.75
2019-03-28T15:53:25.339Z,4.92
2019-03-28T15:59:30.177Z,5.00
2019-03-28T16:05:35.111Z,4.55
2019-03-28T16:11:39.900Z,4.60
2019-03-28T16:17:44.677Z,4.70
2019-03-28T16:23:49.438Z,5.53
2019-03-28T16:29:54.397Z,6.20
2019-03-28T16:35:59.561Z,5.10
2019-03-28T16:42:04.275Z,5.58
2019-03-28T16:48:09.003Z,6.15
2019-03-28T16:54:13.774Z,6.85
2019-03-28T17:00:18.625Z,7.45
2019-03-28T17:06:24.143Z,8.10
2019-03-28T17:12:28.971Z,7.20
2019-03-28T17:18:33.777Z,7.15
2019-03-28T17:24:38.581Z,6.42
2019-03-28T17:30:43.395Z,5.20
2019-03-28T17:36:48.112Z,4.12
2019-03-28T17:42:52.845Z,3.22
2019-03-28T17:48:57.849Z,3.20
2019-03-28T17:55:03.719Z,3.65
2019-03-28T18:01:08.699Z,4.70
2019-03-28T18:07:13.457Z,4.47
2019-03-28T18:13:18.370Z,4.25
2019-03-28T18:19:23.185Z,3.92
2019-03-28T18:25:30.288Z,4.10
2019-03-28T18:31:34.612Z,4.47
2019-03-28T18:37:39.397Z,3.10
2019-03-28T18:43:44.116Z,3.35
2019-03-28T18:49:48.861Z,3.87
2019-03-28T18:55:53.656Z,3.58
2019-03-28T19:01:58.476Z,6.20
2019-03-28T19:08:04.320Z,6.72
2019-03-28T19:14:09.199Z,4.67
2019-03-28T19:20:14.567Z,5.08
2019-03-28T19:26:19.333Z,5.15
2019-03-28T19:32:24.179Z,5.72
2019-03-28T19:38:29.316Z,6.08
2019-03-28T19:44:34.126Z,5.92
2019-03-28T19:50:38.895Z,5.50
2019-03-28T19:56:43.654Z,6.58
2019-03-28T20:02:48.433Z,7.35
2019-03-28T20:08:53.154Z,7.70
2019-03-28T20:15:00.160Z,7.50
2019-03-28T20:21:04.310Z,8.33
2019-03-28T20:27:09.106Z,9.78
2019-03-28T20:33:13.849Z,9.05
2019-03-28T20:39:18.565Z,9.30
2019-03-28T20:45:23.369Z,9.20
2019-03-28T20:51:28.173Z,10.18
2019-03-28T20:57:32.923Z,10.15
2019-03-28T21:03:37.965Z,10.85
2019-03-28T21:09:42.757Z,11.33
2019-03-28T21:15:47.579Z,12.28
2019-03-28T21:21:52.471Z,10.50
2019-03-28T21:27:57.310Z,10.15
2019-03-28T21:34:02.186Z,11.85
2019-03-28T21:40:10.821Z,12.35
2019-03-28T21:46:15.610Z,12.03
2019-03-28T21:52:20.368Z,11.93
2019-03-28T21:58:25.151Z,12.78
2019-03-28T22:04:29.890Z,12.47
2019-03-28T22:10:34.743Z,14.23
2019-03-28T22:16:39.454Z,15.10
2019-03-28T22:22:44.211Z,15.75
2019-03-28T22:28:49.032Z,15.25
2019-03-28T22:34:53.838Z,15.85
2019-03-28T22:40:58.696Z,16.17
2019-03-28T22:47:03.532Z,16.52
2019-03-28T22:53:08.270Z,18.73
2019-03-28T22:59:13.054Z,19.12
2019-03-28T23:05:17.877Z,19.10
2019-03-28T23:11:22.612Z,20.05
2019-03-28T23:17:27.378Z,20.57
2019-03-28T23:23:32.096Z,19.90
2019-03-28T23:29:37.028Z,22.48
2019-03-28T23:35:41.814Z,24.23
2019-03-28T23:41:47.788Z,26.37
2019-03-28T23:47:52.645Z,25.43
2019-03-28T23:53:57.374Z,25.75
